createdAt,value
2019-04-03T00:01:21.967Z,21.80
2019-04-03T00:03:50.484Z,19.50
2019-04-03T00:06:18.940Z,19.00
2019-04-03T00:08:47.405Z,19.42
2019-04-03T00:11:15.892Z,19.65
2019-04-03T00:13:44.419Z,19.27
2019-04-03T00:16:15.646Z,19.80
2019-04-03T00:18:46.931Z,21.65
2019-04-03T00:21:14.825Z,22.58
2019-04-03T00:23:43.277Z,22.30
2019-04-03T00:26:12.545Z,22.77
2019-04-03T00:28:41.128Z,25.35
2019-04-03T00:31:09.517Z,23.98
2019-04-03T00:33:37.956Z,24.90
2019-04-03T00:36:06.413Z,23.30
2019-04-03T00:38:34.993Z,20.23
2019-04-03T00:41:03.687Z,26.27
2019-04-03T00:43:33.889Z,23.65
2019-04-03T00:46:02.396Z,22.20
2019-04-03T00:48:30.824Z,24.50
2019-04-03T00:50:59.341Z,24.80
2019-04-03T00:53:28.314Z,25.08
2019-04-03T00:55:57.043Z,26.23
2019-04-03T00:58:36.112Z,26.68
2019-04-03T01:01:06.264Z,23.80
2019-04-03T01:03:34.865Z,27.42
2019-04-03T01:06:03.297Z,28.17
2019-04-03T01:08:31.728Z,30.52
2019-04-03T01:11:00.503Z,28.52
2019-04-03T01:13:31.007Z,30.32
2019-04-03T01:16:02.085Z,26.87
2019-04-03T01:18:35.112Z,27.98
2019-04-03T01:21:06.143Z,29.98
2019-04-03T01:23:34.034Z,31.15
2019-04-03T01:26:02.563Z,29.67
2019-04-03T01:28:31.035Z,34.95
2019-04-03T01:30:59.506Z,34.30
2019-04-03T01:33:27.934Z,30.20
2019-04-03T01:35:57.491Z,34.88
2019-04-03T01:38:25.959Z,34.88
2019-04-03T01:40:54.429Z,33.23
2019-04-03T01:43:23.203Z,32.65
2019-04-03T01:45:51.909Z,37.20
2019-04-03T01:48:20.412Z,41.15
2019-04-03T01:50:49.008Z,32.40
2019-04-03T01:53:17.636Z,37.88
2019-04-03T01:55:58.101Z,35.05
2019-04-03T01:58:26.660Z,42.88
2019-04-03T02:00:55.090Z,40.73
2019-04-03T02:03:23.540Z,38.40
2019-04-03T02:05:51.998Z,39.13
2019-04-03T02:08:20.428Z,40.28
2019-04-03T02:10:49.260Z,41.65
2019-04-03T02:13:18.209Z,38.65
2019-04-03T02:15:58.928Z,40.85
2019-04-03T02:18:27.372Z,42.33
2019-04-03T02:20:57.670Z,46.68
2019-04-03T02:23:35.662Z,40.78
2019-04-03T02:26:04.315Z,45.90
2019-04-03T02:28:35.106Z,42.40
2019-04-03T02:31:03.525Z,40.78
2019-04-03T02:33:32.000Z,47.33
2019-04-03T02:36:00.523Z,46.95
2019-04-03T02:38:28.949Z,48.48
2019-04-03T02:40:57.459Z,46.42
2019-04-03T02:43:25.901Z,51.45
2019-04-03T02:45:56.313Z,41.20
2019-04-03T02:48:24.429Z,46.00
2019-04-03T02:50:52.892Z,45.08
2019-04-03T02:53:21.353Z,43.60
2019-04-03T02:55:49.821Z,43.78
2019-04-03T02:58:21.340Z,43.87
2019-04-03T03:00:48.367Z,47.83
2019-04-03T03:03:18.100Z,41.20
2019-04-03T03:05:50.274Z,42.85
2019-04-03T03:08:22.504Z,40.43
2019-04-03T03:10:51.441Z,40.23
2019-04-03T03:13:19.416Z,37.60
2019-04-03T03:15:47.877Z,37.10
2019-04-03T03:18:16.322Z,40.80
2019-04-03T03:20:45.091Z,43.05
2019-04-03T03:23:13.555Z,37.33
2019-04-03T03:25:42.330Z,38.13
2019-04-03T03:28:13.175Z,41.58
2019-04-03T03:30:46.779Z,39.05
2019-04-03T03:33:27.907Z,41.53
2019-04-03T03:35:45.400Z,38.23
2019-04-03T03:38:11.573Z,40.30
2019-04-03T03:40:40.337Z,40.20
2019-04-03T03:43:08.882Z,38.98
2019-04-03T03:45:37.383Z,36.90
2019-04-03T03:48:09.115Z,38.05
2019-04-03T03:50:36.890Z,40.23
2019-04-03T03:53:10.254Z,42.58
2019-04-03T03:55:35.651Z,40.17
2019-04-03T03:58:04.102Z,44.67
2019-04-03T04:00:33.142Z,41.35
2019-04-03T04:03:01.918Z,36.73
2019-04-03T04:05:30.459Z,40.10
2019-04-03T04:07:58.969Z,38.53
2019-04-03T04:10:36.420Z,44.25
2019-04-03T04:13:03.813Z,42.13
2019-04-03T04:15:32.431Z,41.73
2019-04-03T04:18:01.361Z,41.65
2019-04-03T04:20:30.189Z,49.38
2019-04-03T04:22:59.031Z,45.10
2019-04-03T04:25:29.753Z,40.58
2019-04-03T04:27:58.385Z,44.15
2019-04-03T04:30:26.867Z,46.05
2019-04-03T04:32:55.541Z,45.70
2019-04-03T04:35:24.086Z,44.42
2019-04-03T04:37:55.291Z,48.65
2019-04-03T04:40:22.653Z,48.83
2019-04-03T04:42:51.242Z,47.83
2019-04-03T04:45:20.022Z,48.35
2019-04-03T04:47:48.497Z,46.23
2019-04-03T04:50:25.320Z,44.98
2019-04-03T04:53:05.539Z,45.90
2019-04-03T04:55:35.011Z,48.00
2019-04-03T04:58:04.918Z,47.38
2019-04-03T05:00:33.930Z,47.70
2019-04-03T05:03:02.348Z,47.15
2019-04-03T05:05:31.547Z,53.75
2019-04-03T05:08:01.883Z,46.55
2019-04-03T05:10:31.915Z,47.40
2019-04-03T05:13:00.458Z,48.15
2019-04-03T05:15:28.988Z,48.70
2019-04-03T05:17:58.275Z,51.30
2019-04-03T05:20:26.753Z,47.67
2019-04-03T05:22:55.743Z,44.08
2019-04-03T05:25:24.324Z,43.23
2019-04-03T05:27:52.771Z,50.30
2019-04-03T05:30:29.029Z,49.48
2019-04-03T05:32:58.072Z,49.63
2019-04-03T05:35:26.781Z,50.95
2019-04-03T05:37:55.258Z,49.15
2019-04-03T05:40:25.651Z,53.85
2019-04-03T05:42:53.955Z,53.78
2019-04-03T05:45:22.453Z,55.65
2019-04-03T05:47:51.058Z,52.30
2019-04-03T05:50:19.562Z,50.90
2019-04-03T05:52:48.011Z,54.35
2019-04-03T05:55:18.419Z,49.67
2019-04-03T05:57:46.905Z,51.37
2019-04-03T06:00:15.591Z,50.75
2019-04-03T06:02:44.168Z,51.25
2019-04-03T06:05:13.155Z,50.67
2019-04-03T06:07:41.755Z,53.70
2019-04-03T06:10:10.474Z,56.53
2019-04-03T06:12:38.995Z,55.30
2019-04-03T06:15:09.262Z,52.00
2019-04-03T06:17:37.903Z,50.75
2019-04-03T06:20:10.145Z,57.67
2019-04-03T06:22:38.272Z,52.17
2019-04-03T06:25:06.916Z,52.20
2019-04-03T06:27:35.461Z,48.92
2019-04-03T06:30:06.235Z,48.02
2019-04-03T06:32:34.681Z,44.33
2019-04-03T06:35:03.230Z,45.48
2019-04-03T06:37:31.658Z,51.65
2019-04-03T06:40:02.360Z,45.23
2019-04-03T06:42:30.235Z,42.33
2019-04-03T06:44:58.663Z,44.38
2019-04-03T06:47:27.109Z,50.70
2019-04-03T06:49:55.559Z,49.10
2019-04-03T06:52:24.045Z,46.60
2019-04-03T06:54:52.643Z,47.55
2019-04-03T06:57:21.417Z,48.58
2019-04-03T06:59:50.046Z,43.42
2019-04-03T07:02:18.505Z,46.95
2019-04-03T07:04:48.030Z,41.08
2019-04-03T07:07:31.502Z,37.55
2019-04-03T07:09:46.565Z,40.28
2019-04-03T07:12:15.993Z,44.55
2019-04-03T07:14:44.928Z,41.02
2019-04-03T07:17:13.353Z,39.92
2019-04-03T07:19:42.060Z,34.05
2019-04-03T07:22:10.821Z,39.35
2019-04-03T07:24:39.388Z,38.00
2019-04-03T07:27:08.124Z,43.80
2019-04-03T07:29:36.605Z,37.75
2019-04-03T07:32:05.205Z,41.13
2019-04-03T07:34:34.493Z,39.67
2019-04-03T07:37:03.189Z,38.85
2019-04-03T07:39:31.598Z,38.53
2019-04-03T07:42:00.067Z,37.38
2019-04-03T07:44:29.827Z,35.58
2019-04-03T07:46:58.997Z,36.15
2019-04-03T07:49:27.778Z,33.83
2019-04-03T07:51:56.546Z,35.48
2019-04-03T07:54:26.620Z,37.98
2019-04-03T07:56:57.344Z,35.50
2019-04-03T07:59:25.381Z,35.50
2019-04-03T08:01:55.156Z,35.70
2019-04-03T08:04:25.246Z,38.45
2019-04-03T08:06:53.860Z,37.75
2019-04-03T08:09:22.303Z,35.55
2019-04-03T08:11:51.006Z,36.15
2019-04-03T08:14:19.986Z,37.03
2019-04-03T08:16:48.908Z,34.23
2019-04-03T08:19:17.928Z,34.98
2019-04-03T08:21:46.428Z,37.42
2019-04-03T08:24:14.959Z,35.33
2019-04-03T08:27:07.775Z,38.25
2019-04-03T08:29:37.925Z,35.43
2019-04-03T08:32:05.394Z,32.95
2019-04-03T08:34:33.959Z,34.23
2019-04-03T08:37:02.384Z,36.10
2019-04-03T08:39:30.833Z,34.70
2019-04-03T08:41:59.386Z,35.30
2019-04-03T08:44:28.021Z,34.48
2019-04-03T08:46:56.531Z,32.95
2019-04-03T08:49:26.283Z,36.00
2019-04-03T08:51:55.176Z,33.05
2019-04-03T08:54:24.002Z,28.87
2019-04-03T08:56:52.453Z,32.67
2019-04-03T08:59:20.985Z,33.28
2019-04-03T09:01:49.439Z,32.55
2019-04-03T09:04:18.055Z,32.73
2019-04-03T09:06:46.624Z,36.45
2019-04-03T09:09:15.051Z,32.15
2019-04-03T09:11:43.576Z,33.18
2019-04-03T09:14:12.023Z,29.85
2019-04-03T09:16:40.481Z,31.10
2019-04-03T09:19:10.156Z,33.00
2019-04-03T09:21:39.083Z,31.45
2019-04-03T09:24:07.497Z,29.87
2019-04-03T09:26:38.059Z,34.30
2019-04-03T09:29:06.029Z,31.17
2019-04-03T09:31:34.486Z,28.17
2019-04-03T09:34:03.228Z,29.75
2019-04-03T09:36:34.327Z,30.95
2019-04-03T09:39:01.858Z,21.62
2019-04-03T09:41:30.537Z,27.60
2019-04-03T09:43:59.057Z,20.43
2019-04-03T09:46:30.720Z,18.10
2019-04-03T09:48:57.626Z,19.70
2019-04-03T09:51:26.122Z,11.80
2019-04-03T09:53:57.099Z,11.55
2019-04-03T09:56:24.666Z,13.58
2019-04-03T09:58:55.892Z,14.78
2019-04-03T10:01:23.328Z,14.18
2019-04-03T10:03:54.024Z,16.85
2019-04-03T10:06:22.240Z,13.05
2019-04-03T10:08:50.672Z,12.85
2019-04-03T10:11:20.456Z,12.23
2019-04-03T10:13:54.963Z,16.02
2019-04-03T10:16:23.561Z,16.15
2019-04-03T10:18:51.998Z,15.95
2019-04-03T10:21:20.766Z,17.48
2019-04-03T10:23:49.903Z,13.62
2019-04-03T10:26:18.600Z,16.50
2019-04-03T10:28:49.157Z,18.10
2019-04-03T10:31:17.622Z,17.62
2019-04-03T10:33:46.018Z,15.00
2019-04-03T10:36:17.645Z,12.07
2019-04-03T10:38:48.291Z,13.00
2019-04-03T10:41:15.683Z,15.95
2019-04-03T10:43:44.269Z,18.85
2019-04-03T10:46:13.768Z,19.23
2019-04-03T10:48:42.323Z,20.50
2019-04-03T10:51:10.802Z,23.22
2019-04-03T10:53:39.310Z,16.87
2019-04-03T10:56:08.022Z,16.15
2019-04-03T10:58:38.083Z,15.93
2019-04-03T11:01:06.817Z,17.37
2019-04-03T11:03:35.209Z,16.80
2019-04-03T11:06:05.031Z,16.37
2019-04-03T11:08:33.736Z,18.85
2019-04-03T11:11:04.502Z,18.27
2019-04-03T11:13:34.291Z,14.68
2019-04-03T11:16:02.707Z,11.10
2019-04-03T11:18:37.363Z,10.58
2019-04-03T11:21:05.796Z,15.35
2019-04-03T11:23:40.714Z,10.48
2019-04-03T11:26:06.116Z,12.80
2019-04-03T11:28:36.704Z,12.07
2019-04-03T11:31:04.663Z,13.62
2019-04-03T11:33:33.146Z,11.20
2019-04-03T11:36:01.578Z,13.45
2019-04-03T11:38:31.277Z,11.28
2019-04-03T11:41:11.371Z,14.65
2019-04-03T11:43:31.511Z,13.62
2019-04-03T11:46:00.940Z,12.10
2019-04-03T11:48:29.388Z,13.15
2019-04-03T11:50:58.152Z,11.08
2019-04-03T11:53:27.115Z,18.30
2019-04-03T11:55:56.717Z,13.55
2019-04-03T11:58:25.511Z,15.03
2019-04-03T12:00:54.410Z,16.45
2019-04-03T12:03:24.477Z,14.68
2019-04-03T12:05:52.938Z,14.03
2019-04-03T12:08:21.727Z,15.90
2019-04-03T12:10:50.260Z,16.10
2019-04-03T12:13:21.038Z,22.70
2019-04-03T12:15:52.498Z,15.30
2019-04-03T12:18:18.870Z,17.60
2019-04-03T12:20:49.380Z,17.25
2019-04-03T12:23:18.373Z,19.35
2019-04-03T12:25:46.904Z,18.25
2019-04-03T12:28:17.250Z,18.62
2019-04-03T12:30:45.911Z,16.67
2019-04-03T12:33:15.729Z,18.12
2019-04-03T12:35:47.283Z,19.42
2019-04-03T12:38:16.039Z,20.17
2019-04-03T12:40:44.627Z,17.30
2019-04-03T12:43:13.062Z,18.73
2019-04-03T12:45:42.476Z,18.52
2019-04-03T12:48:10.895Z,15.18
2019-04-03T12:50:39.317Z,16.87
2019-04-03T12:53:09.241Z,15.48
2019-04-03T12:55:37.690Z,15.43
2019-04-03T12:58:06.317Z,14.13
2019-04-03T13:00:45.127Z,13.65
2019-04-03T13:03:12.431Z,12.53
2019-04-03T13:05:40.948Z,13.35
2019-04-03T13:08:09.381Z,12.00
2019-04-03T13:10:42.502Z,12.37
2019-04-03T13:13:08.079Z,12.55
2019-04-03T13:15:38.581Z,12.20
2019-04-03T13:18:07.145Z,12.40
2019-04-03T13:20:37.071Z,12.18
2019-04-03T13:23:06.655Z,12.98
2019-04-03T13:25:35.116Z,12.98
2019-04-03T13:28:04.836Z,12.80
2019-04-03T13:30:33.570Z,13.90
2019-04-03T13:33:06.069Z,15.03
2019-04-03T13:35:32.242Z,16.45
2019-04-03T13:38:00.702Z,14.70
2019-04-03T13:40:29.146Z,13.22
2019-04-03T13:42:58.608Z,14.10
2019-04-03T13:45:27.213Z,13.98
2019-04-03T13:47:58.961Z,14.68
2019-04-03T13:50:27.386Z,13.72
2019-04-03T13:52:55.972Z,15.75
2019-04-03T13:55:24.421Z,16.62
2019-04-03T13:57:52.841Z,17.27
2019-04-03T14:00:23.455Z,14.03
2019-04-03T14:02:51.679Z,18.65
2019-04-03T14:05:20.159Z,17.05
2019-04-03T14:07:50.382Z,16.27
2019-04-03T14:10:18.984Z,16.85
2019-04-03T14:12:47.588Z,19.15
2019-04-03T14:15:16.022Z,17.17
2019-04-03T14:17:55.438Z,19.35
2019-04-03T14:20:16.456Z,16.82
2019-04-03T14:22:45.204Z,22.27
2019-04-03T14:25:20.367Z,20.20
2019-04-03T14:27:43.851Z,19.73
2019-04-03T14:30:12.605Z,17.12
2019-04-03T14:32:41.545Z,20.70
2019-04-03T14:35:40.777Z,19.15
2019-04-03T14:37:41.228Z,17.62
2019-04-03T14:40:11.910Z,21.00
2019-04-03T14:42:39.756Z,18.20
2019-04-03T14:45:08.334Z,17.48
2019-04-03T14:47:36.806Z,19.87
2019-04-03T14:50:07.284Z,16.65
2019-04-03T14:52:36.218Z,22.98
2019-04-03T14:55:16.621Z,17.52
2019-04-03T14:57:37.191Z,21.00
2019-04-03T15:00:23.943Z,18.92
2019-04-03T15:02:40.288Z,17.67
2019-04-03T15:05:09.241Z,19.17
2019-04-03T15:07:37.750Z,17.15
2019-04-03T15:10:06.678Z,17.50
2019-04-03T15:12:38.577Z,20.23
2019-04-03T15:15:07.454Z,17.90
2019-04-03T15:17:37.607Z,18.20
2019-04-03T15:20:09.466Z,19.15
2019-04-03T15:22:38.396Z,16.65
2019-04-03T15:25:07.483Z,17.75
2019-04-03T15:27:36.231Z,16.97
2019-04-03T15:30:10.062Z,22.13
2019-04-03T15:32:37.679Z,17.77
2019-04-03T15:35:06.189Z,19.12
2019-04-03T15:37:34.896Z,18.82
2019-04-03T15:40:03.493Z,20.80
2019-04-03T15:42:32.351Z,21.15
2019-04-03T15:45:00.989Z,20.23
2019-04-03T15:47:38.204Z,17.67
2019-04-03T15:49:59.957Z,18.20
2019-04-03T15:52:29.305Z,19.67
2019-04-03T15:54:57.833Z,18.00
2019-04-03T15:57:26.468Z,20.95
2019-04-03T15:59:54.918Z,23.00
2019-04-03T16:02:23.685Z,18.95
2019-04-03T16:04:52.633Z,20.72
2019-04-03T16:07:21.142Z,21.27
2019-04-03T16:09:50.696Z,21.37
2019-04-03T16:12:20.075Z,22.00
2019-04-03T16:14:50.661Z,21.10
2019-04-03T16:17:18.927Z,22.60
2019-04-03T16:19:47.638Z,17.42
2019-04-03T16:22:16.202Z,21.33
2019-04-03T16:24:53.911Z,23.32
2019-04-03T16:27:22.903Z,23.27
2019-04-03T16:29:51.347Z,22.25
2019-04-03T16:32:19.830Z,23.20
2019-04-03T16:34:48.405Z,22.80
2019-04-03T16:37:16.934Z,21.73
2019-04-03T16:39:45.365Z,25.17
2019-04-03T16:42:14.144Z,26.87
2019-04-03T16:44:45.735Z,25.97
2019-04-03T16:47:14.512Z,29.10
2019-04-03T16:49:43.250Z,28.47
2019-04-03T16:52:11.704Z,28.20
2019-04-03T16:54:43.435Z,28.07
2019-04-03T16:57:10.276Z,27.00
2019-04-03T16:59:39.234Z,29.92
2019-04-03T17:02:07.814Z,29.27
2019-04-03T17:04:37.491Z,28.60
2019-04-03T17:07:06.297Z,25.62
2019-04-03T17:09:37.474Z,25.60
2019-04-03T17:12:04.905Z,28.00
2019-04-03T17:14:33.387Z,31.40
2019-04-03T17:17:01.953Z,28.92
2019-04-03T17:19:30.617Z,26.70
2019-04-03T17:21:59.042Z,26.25
2019-04-03T17:24:27.470Z,32.28
2019-04-03T17:26:58.758Z,27.52
2019-04-03T17:29:26.005Z,29.85
2019-04-03T17:31:57.106Z,27.70
2019-04-03T17:34:24.574Z,28.65
2019-04-03T17:36:54.118Z,34.05
2019-04-03T17:39:23.030Z,28.05
2019-04-03T17:41:51.481Z,32.20
2019-04-03T17:44:19.930Z,29.90
2019-04-03T17:46:49.359Z,35.28
2019-04-03T17:49:18.012Z,32.80
2019-04-03T17:51:46.459Z,31.75
2019-04-03T17:54:14.885Z,30.75
2019-04-03T17:56:43.663Z,34.25
2019-04-03T17:59:12.217Z,31.90
2019-04-03T18:01:40.646Z,32.73
2019-04-03T18:04:09.129Z,34.20
2019-04-03T18:06:37.584Z,32.28
2019-04-03T18:09:08.384Z,33.05
2019-04-03T18:11:37.148Z,41.77
2019-04-03T18:14:06.507Z,38.28
2019-04-03T18:16:34.939Z,37.67
2019-04-03T18:19:04.847Z,36.65
2019-04-03T18:21:33.487Z,37.80
2019-04-03T18:24:01.962Z,34.78
2019-04-03T18:26:31.119Z,37.25
2019-04-03T18:28:59.640Z,38.78
2019-04-03T18:31:28.130Z,40.90
2019-04-03T18:33:56.601Z,46.90
2019-04-03T18:36:27.675Z,42.00
2019-04-03T18:38:55.117Z,45.25
2019-04-03T18:41:23.586Z,39.27
2019-04-03T18:43:54.150Z,38.92
2019-04-03T18:46:31.946Z,41.50
2019-04-03T18:48:57.072Z,43.02
2019-04-03T18:51:23.409Z,43.55
2019-04-03T18:53:51.857Z,47.08
2019-04-03T18:56:20.286Z,43.60
2019-04-03T18:58:48.761Z,45.20
2019-04-03T19:01:17.261Z,49.23
2019-04-03T19:03:45.725Z,47.43
2019-04-03T19:06:15.116Z,47.43
2019-04-03T19:08:43.560Z,44.05
2019-04-03T19:11:11.989Z,48.92
2019-04-03T19:13:40.483Z,45.67
2019-04-03T19:16:09.076Z,48.10
2019-04-03T19:18:37.657Z,50.40
2019-04-03T19:21:06.121Z,60.20
2019-04-03T19:23:34.549Z,50.78
2019-04-03T19:26:04.074Z,52.05
2019-04-03T19:28:34.367Z,56.63
2019-04-03T19:31:02.602Z,49.98
2019-04-03T19:33:31.096Z,51.70
2019-04-03T19:35:59.523Z,48.92
2019-04-03T19:38:27.960Z,57.67
2019-04-03T19:40:56.410Z,58.38
2019-04-03T19:43:24.838Z,57.33
2019-04-03T19:45:54.289Z,59.08
2019-04-03T19:48:23.864Z,61.15
2019-04-03T19:50:53.013Z,57.08
2019-04-03T19:53:21.449Z,61.23
2019-04-03T19:55:49.896Z,61.35
2019-04-03T19:58:18.340Z,62.08
2019-04-03T20:00:47.793Z,62.17
2019-04-03T20:03:16.236Z,62.88
2019-04-03T20:05:44.669Z,72.05
2019-04-03T20:08:13.153Z,79.20
2019-04-03T20:10:41.581Z,79.00
2019-04-03T20:13:11.032Z,78.62
2019-04-03T20:15:39.481Z,77.08
2019-04-03T20:18:07.974Z,58.35
2019-04-03T20:20:36.405Z,65.00
2019-04-03T20:23:04.830Z,71.60
2019-04-03T20:25:33.290Z,73.75
2019-04-03T20:28:01.756Z,76.90
2019-04-03T20:30:32.460Z,71.10
2019-04-03T20:33:00.333Z,77.03
2019-04-03T20:35:28.798Z,77.67
2019-04-03T20:37:57.703Z,75.25
2019-04-03T20:40:26.274Z,73.22
2019-04-03T20:42:55.666Z,78.85
2019-04-03T20:45:24.110Z,74.07
2019-04-03T20:47:52.543Z,80.30
2019-04-03T20:50:21.007Z,81.02
2019-04-03T20:52:49.432Z,78.37
2019-04-03T20:55:17.884Z,82.62
2019-04-03T20:57:55.542Z,66.57
2019-04-03T21:00:18.532Z,73.90
2019-04-03T21:02:46.488Z,74.03
2019-04-03T21:05:17.907Z,81.97
2019-04-03T21:07:45.122Z,76.40
2019-04-03T21:10:13.554Z,76.17
2019-04-03T21:12:42.968Z,74.85
2019-04-03T21:15:13.719Z,70.10
2019-04-03T21:17:41.626Z,79.87
2019-04-03T21:20:10.072Z,71.90
2019-04-03T21:22:38.489Z,75.42
2019-04-03T21:25:06.977Z,80.10
2019-04-03T21:27:35.405Z,74.53
2019-04-03T21:30:08.401Z,73.97
2019-04-03T21:32:36.866Z,76.45
2019-04-03T21:35:05.363Z,74.90
2019-04-03T21:37:33.909Z,70.78
2019-04-03T21:40:04.879Z,80.47
2019-04-03T21:42:32.401Z,79.40
2019-04-03T21:45:02.469Z,72.20
2019-04-03T21:47:30.964Z,75.10
2019-04-03T21:49:59.410Z,77.40
2019-04-03T21:52:27.829Z,65.12
2019-04-03T21:54:58.419Z,62.43
2019-04-03T21:57:26.395Z,74.32
2019-04-03T21:59:54.848Z,88.90
2019-04-03T22:02:23.286Z,77.85
2019-04-03T22:04:51.885Z,71.85
2019-04-03T22:07:21.854Z,77.25
2019-04-03T22:09:50.373Z,70.22
2019-04-03T22:12:18.908Z,64.12
2019-04-03T22:14:47.361Z,61.13
2019-04-03T22:17:15.782Z,65.83
2019-04-03T22:19:44.230Z,65.47
2019-04-03T22:22:12.652Z,62.08
2019-04-03T22:24:41.097Z,65.10
2019-04-03T22:27:11.371Z,64.82
2019-04-03T22:29:39.636Z,62.95
2019-04-03T22:32:08.106Z,68.57
2019-04-03T22:34:36.527Z,64.25
2019-04-03T22:37:05.003Z,70.03
2019-04-03T22:39:33.434Z,72.50
2019-04-03T22:42:01.867Z,76.50
2019-04-03T22:44:30.311Z,62.62
2019-04-03T22:46:58.734Z,64.22
2019-04-03T22:49:27.192Z,67.55
2019-04-03T22:51:55.619Z,56.28
2019-04-03T22:54:24.162Z,57.50
2019-04-03T22:56:52.686Z,71.35
2019-04-03T22:59:23.557Z,64.82
2019-04-03T23:01:51.206Z,70.40
2019-04-03T23:04:19.681Z,68.60
2019-04-03T23:06:49.684Z,73.85
2019-04-03T23:09:18.459Z,72.85
2019-04-03T23:11:46.952Z,67.80
2019-04-03T23:14:15.527Z,71.07
2019-04-03T23:16:43.941Z,76.97
2019-04-03T23:19:12.359Z,76.92
2019-04-03T23:21:40.808Z,82.85
2019-04-03T23:24:09.260Z,76.30
2019-04-03T23:26:37.771Z,74.03
2019-04-03T23:29:06.200Z,74.75
2019-04-03T23:31:39.356Z,69.85
2019-04-03T23:34:07.807Z,74.30
2019-04-03T23:36:36.361Z,73.75
2019-04-03T23:39:07.681Z,76.65
2019-04-03T23:41:36.574Z,85.67
2019-04-03T23:44:05.461Z,76.50
2019-04-03T23:46:34.893Z,69.40
2019-04-03T23:49:03.346Z,62.88
2019-04-03T23:51:32.140Z,73.95
2019-04-03T23:54:02.607Z,64.72
2019-04-03T23:56:30.715Z,74.80
2019-04-03T23:58:59.237Z,70.20
